Cameron, West Virginia
Current Conditions -  °F | °C
As of 9:53 AM on Wednesday 26 Nov 2014 (Local Time) from KHLG Reporting Station
Light Snow Light Snow  
Wind Chill: 23°   Ceiling: 2600
Heat Index: 31°   Visibility: 1mi
Dew Point: 26°   Wind: 8mph
Humidity: 82%   Direction: 50°NE
Pressure: 30.07"   Gusts: NA
Location:  39.83°N, 80.57°W
Report Text: KHLG 261453Z 05007KT 1SM R03/P6000FT -SN BKN026 BKN036 OVC050 M01/M03 A3007 RMK AO2 SNB39 SLP199 P0000 60000 T10061033 50010
Loading
Personal Weather Stations






























Interactive Weather Map New forecast layout! Learn more

10-Day Weather Forecast

Advertisements
Track Severe Weather on mobile